CheckWX is a tool to help pilots better visualize weather data.  It is not intended as a substitute for an official pre-flight weather briefing.

19:59:55 UTC

K40B METAR
Clayton Lake Airport
Clayton Lake, Maine, USA
Current

44 mins ago

K40B 261916Z AUTO VRB03KT 20/14 A2973 RMK AO1 SLP069 T01990142 50000
Observed
May-26 @ 19:16 UTC
Wind
  • Variable at 3 KTS
Visibility
Temperature
20°C / 68°F
Dewpoint
14°C / 57°F
Humidity
69%
Altimeter
29.73" Hg
Pressure
1006.82 hPa
Previous

2 hours ago

K40B 261816Z AUTO VRB04KT 17/15 A2974 RMK AO1 SLP073 T01690153 10175 20106 54000 P0004 60007
Observed
May-26 @ 18:16 UTC
Wind
  • Variable at 4 KTS
Visibility
Temperature
17°C / 63°F
Dewpoint
15°C / 59°F
Humidity
88%
Altimeter
29.74" Hg
Pressure
1007.12 hPa
Current Rain
0.04"
Previous

3 hours ago

K40B 261716Z AUTO 00000KT 16/ A2974 RMK AO1 SLP073 T0160 50004 P0003
Observed
May-26 @ 17:16 UTC
Visibility
Temperature
16°C / 61°F
Altimeter
29.74" Hg
Pressure
1007.12 hPa
Current Rain
0.03"